WetterOnline ( https://www.wetteronline.de )

Wetter aktuell Gießen

Aktuelles Wetter: Gießen (195m)

6-stündlich | Neueste Meldungen
Ortszeit Temperatur Wetter
Do, 22.02. 19:00 10.7° C leichter Regen
Do, 22.02. 13:00 10.1° C Sprühregen
Do, 22.02. 7:00 8.2° C leichter Regen
Do, 22.02. 1:00 7.7° C leichter Regen
Mi, 21.02. 19:00 8.7° C bewölkt
Mi, 21.02. 13:00 8.9° C bedeckt
Mi, 21.02. 7:00 7.3° C bedeckt
Mi, 21.02. 1:00 7.3° C wolkig
Ortszeit Temperatur Wetter
Fr, 23.02. 0:00 8.6° C bewölkt
Do, 22.02. 23:50 8.6° C bewölkt
Do, 22.02. 23:40 9.1° C bedeckt
Do, 22.02. 23:30 9.3° C bewölkt
Do, 22.02. 23:20 9.3° C bewölkt
Do, 22.02. 23:10 9.3° C bedeckt
Do, 22.02. 23:00 9.4° C leicht bewölkt
Do, 22.02. 22:30 10.1° C wolkig
Do, 22.02. 22:00 10.9° C leichter Regen
Do, 22.02. 21:30 11.3° C bewölkt
Do, 22.02. 21:00 11.5° C bewölkt
Ortszeit Relative Feuchte Sichtweite
Do, 22.02. 19:00 87% 27 km
Do, 22.02. 13:00 94% 10 km
Do, 22.02. 7:00 93% 26 km
Do, 22.02. 1:00 89% 26 km
Mi, 21.02. 19:00 74% 40 km
Mi, 21.02. 13:00 69% 40 km
Mi, 21.02. 7:00 78% 35 km
Mi, 21.02. 1:00 80% 28 km
Ortszeit Relative Feuchte Sichtweite
Fr, 23.02. 0:00 65% >70 km
Do, 22.02. 23:50 65% -
Do, 22.02. 23:40 64% -
Do, 22.02. 23:30 68% 65 km
Do, 22.02. 23:20 68% -
Do, 22.02. 23:10 68% -
Do, 22.02. 23:00 67% 60 km
Do, 22.02. 22:30 68% >70 km
Do, 22.02. 22:00 77% 35 km
Do, 22.02. 21:30 76% 60 km
Do, 22.02. 21:00 76% 65 km
Ortszeit Niederschlagsmenge Niederschlagsart
Do, 22.02. 19:00 2 l/m2 in 12 Std. Regen
Do, 22.02. 13:00 0.2 l/m2 in 6 Std. Regen
Do, 22.02. 7:00 5 l/m2 in 12 Std. Regen
Do, 22.02. 1:00 1 l/m2 in 6 Std. Regen
Mi, 21.02. 19:00 0.0 l/m2 in 12 Std. -
Mi, 21.02. 13:00 0.0 l/m2 in 6 Std. -
Mi, 21.02. 7:00 0.1 l/m2 in 12 Std. -
Mi, 21.02. 1:00 0.1 l/m2 in 6 Std. Regen
Ortszeit Niederschlagsmenge Niederschlagsart
Fr, 23.02. 0:00 0.0 l/m2 in 1 Std. -
Do, 22.02. 23:50 keine Meldung -
Do, 22.02. 23:40 keine Meldung -
Do, 22.02. 23:30 0.0 l/m2 in 30 Min -
Do, 22.02. 23:20 keine Meldung -
Do, 22.02. 23:10 keine Meldung -
Do, 22.02. 23:00 <0.05 l/m2 in 1 Std. Regen
Do, 22.02. 22:30 <0.05 l/m2 in 30 Min Schneeregen
Do, 22.02. 22:00 <0.05 l/m2 in 1 Std. Regen
Do, 22.02. 21:30 0.0 l/m2 in 30 Min -
Do, 22.02. 21:00 0.0 l/m2 in 1 Std. -
Ortszeit Stärke Spitze Richtung
km/h Bft. km/h Grad Sektor
Do, 22.02. 19:00 28 4 43 180° S
Do, 22.02. 13:00 11 2 22 160° S
Do, 22.02. 7:00 7 2 25 170° S
Do, 22.02. 1:00 18 3 36 180° S
Mi, 21.02. 19:00 17 3 33 160° S
Mi, 21.02. 13:00 17 3 33 180° S
Mi, 21.02. 7:00 17 3 35 200° S
Mi, 21.02. 1:00 13 3 30 200° S
Ortszeit Stärke Spitze Richtung
km/h Bft. km/h Grad Sektor
Fr, 23.02. 0:00 44 6 70 220° SW
Do, 22.02. 23:50 44 6 - 220° SW
Do, 22.02. 23:40 43 6 - 230° SW
Do, 22.02. 23:30 30 5 52 230° SW
Do, 22.02. 23:20 30 5 - 230° SW
Do, 22.02. 23:10 36 5 - 220° SW
Do, 22.02. 23:00 50 7 79 240° SW
Do, 22.02. 22:30 43 6 72 230° SW
Do, 22.02. 22:00 47 6 65 200° S
Do, 22.02. 21:30 30 5 52 190° S
Do, 22.02. 21:00 35 5 57 180° S
Ortszeit Untergrenze Bedeckung Gattung
total tief tief mittel hoch
Do, 22.02. 19:00 630 m 7/8 7/8 - - -
Do, 22.02. 13:00 270 m 8/8 8/8 - - -
Do, 22.02. 7:00 420 m 8/8 8/8 - - -
Do, 22.02. 1:00 540 m 8/8 8/8 - - -
Mi, 21.02. 19:00 2400 m 7/8 7/8 - - -
Mi, 21.02. 13:00 3300 m 8/8 8/8 - - -
Mi, 21.02. 7:00 600 m 8/8 8/8 - - -
Mi, 21.02. 1:00 2100 m 5/8 4/8 - - -
Ortszeit Bedeckungsgrad in Achtel und Wolkenuntergrenze
Fr, 23.02. 0:00 1(1020m) 4(1500m) 8(4800m)
Do, 22.02. 23:50 1(1020m) 4(1500m) 8(4800m)
Do, 22.02. 23:40 8
Do, 22.02. 23:30 7(1050m) 7(1320m) 8(5700m)
Do, 22.02. 23:20 7(1050m) 7(1320m) 8(5700m)
Do, 22.02. 23:10 8
Do, 22.02. 23:00 1(1260m) 6(4500m) 6(5700m)
Do, 22.02. 22:30 1(990m) 7(4500m) 7(5100m)
Do, 22.02. 22:00 2(810m) 7(1380m) 8(4500m)
Do, 22.02. 21:30 2(930m) 7(1800m) 7(5100m)
Do, 22.02. 21:00 4(900m) 5(1290m) 7(1500m)
Ortszeit Luftdruck NN (hPa) Tendenz (hPa in 3 Std.)
Do, 22.02. 19:00 986 - 2,7
Do, 22.02. 13:00 994 - 3,7
Do, 22.02. 7:00 1000 - 2,1
Do, 22.02. 1:00 1005 - 2,9
Mi, 21.02. 19:00 1012 - 2,7
Mi, 21.02. 13:00 1019 - 2,4
Mi, 21.02. 7:00 1022 - 1,3
Mi, 21.02. 1:00 1026 - 1,4
Ortszeit Luftdruck NN (hPa) Tendenz (hPa in 3 Std.)
Fr, 23.02. 0:00 989 + 3,5
Do, 22.02. 23:50 989 keine Meldung
Do, 22.02. 23:40 989 keine Meldung
Do, 22.02. 23:30 989 + 2,9
Do, 22.02. 23:20 989 keine Meldung
Do, 22.02. 23:10 988 keine Meldung
Do, 22.02. 23:00 988 + 2,0
Do, 22.02. 22:30 986 + 0,1
Do, 22.02. 22:00 986 - 0,9
Do, 22.02. 21:30 985 - 1,7
Do, 22.02. 21:00 985 - 1,6
Ortszeit Schneehöhe (cm)
Do, 22.02. 19:00 0
Do, 22.02. 13:00 0
Do, 22.02. 7:00 0
Do, 22.02. 1:00 0
Mi, 21.02. 19:00 0
Mi, 21.02. 13:00 0
Mi, 21.02. 7:00 0
Mi, 21.02. 1:00 0
Ortszeit Schneehöhe (cm)
Fr, 23.02. 0:00 0
Do, 22.02. 23:50 0
Do, 22.02. 23:40 -
Do, 22.02. 23:30 0
Do, 22.02. 23:20 0
Do, 22.02. 23:10 -
Do, 22.02. 23:00 0
Do, 22.02. 22:30 0
Do, 22.02. 22:00 0
Do, 22.02. 21:30 0
Do, 22.02. 21:00 0
Link zu dieser Seite / Seite empfehlen

Das Wetter in ...